createdAt,value
2024-02-02T00:01:52.739Z,20.05
2024-02-02T00:04:19.816Z,20.63
2024-02-02T00:06:47.108Z,19.42
2024-02-02T00:09:14.300Z,18.60
2024-02-02T00:11:41.476Z,19.35
2024-02-02T00:14:08.810Z,20.02
2024-02-02T00:16:35.831Z,19.48
2024-02-02T00:19:06.247Z,19.50
2024-02-02T00:21:33.458Z,21.45
2024-02-02T00:24:00.599Z,19.95
2024-02-02T00:26:27.749Z,19.83
2024-02-02T00:28:55.408Z,18.58
2024-02-02T00:31:23.441Z,20.15
2024-02-02T00:33:50.770Z,20.33
2024-02-02T00:36:18.234Z,19.63
2024-02-02T00:38:45.462Z,19.58
2024-02-02T00:41:12.453Z,18.60
2024-02-02T00:43:39.474Z,18.98
2024-02-02T00:46:06.743Z,19.45
2024-02-02T00:48:35.642Z,18.20
2024-02-02T00:51:05.073Z,18.52
2024-02-02T00:53:32.213Z,17.50
2024-02-02T00:55:59.225Z,18.52
2024-02-02T00:58:26.321Z,18.92
2024-02-02T01:00:53.438Z,17.55
2024-02-02T01:03:20.538Z,19.10
2024-02-02T01:05:47.520Z,19.17
2024-02-02T01:08:15.465Z,20.27
2024-02-02T01:10:42.868Z,18.95
2024-02-02T01:13:10.040Z,18.65
2024-02-02T01:15:37.291Z,19.85
2024-02-02T01:18:08.783Z,19.08
2024-02-02T01:20:36.330Z,19.33
2024-02-02T01:23:04.332Z,18.15
2024-02-02T01:25:31.585Z,18.38
2024-02-02T01:27:58.713Z,18.55
2024-02-02T01:30:27.809Z,18.52
2024-02-02T01:32:54.960Z,18.58
2024-02-02T01:35:23.054Z,18.45
2024-02-02T01:37:50.352Z,18.25
2024-02-02T01:40:21.056Z,18.27
2024-02-02T01:42:48.272Z,19.17
2024-02-02T01:45:15.616Z,18.33
2024-02-02T01:47:42.740Z,18.88
2024-02-02T01:50:10.428Z,19.35
2024-02-02T01:52:37.732Z,18.10
2024-02-02T01:55:05.491Z,18.30
2024-02-02T01:57:32.782Z,18.38
2024-02-02T02:00:01.539Z,18.35
2024-02-02T02:02:37.598Z,18.20
2024-02-02T02:05:04.952Z,19.58
2024-02-02T02:07:32.200Z,18.10
2024-02-02T02:09:59.374Z,19.27
2024-02-02T02:12:26.429Z,19.15
2024-02-02T02:14:53.736Z,19.05
2024-02-02T02:17:20.892Z,19.00
2024-02-02T02:22:18.756Z,20.13
2024-02-02T02:24:46.050Z,19.83
2024-02-02T02:27:13.135Z,21.08
2024-02-02T02:29:40.221Z,20.77
2024-02-02T02:32:08.044Z,19.60
2024-02-02T02:34:37.908Z,20.10
2024-02-02T02:37:05.164Z,19.85
2024-02-02T02:39:32.266Z,20.23
2024-02-02T02:41:59.336Z,19.45
2024-02-02T02:44:27.008Z,20.58
2024-02-02T02:46:54.071Z,19.55
2024-02-02T02:49:21.280Z,19.17
2024-02-02T02:51:49.584Z,19.27
2024-02-02T02:54:16.909Z,19.75
2024-02-02T02:56:51.458Z,19.60
2024-02-02T02:59:19.753Z,19.92
2024-02-02T03:01:47.405Z,19.13
2024-02-02T03:04:14.787Z,18.17
2024-02-02T03:06:41.922Z,18.58
2024-02-02T03:09:09.731Z,17.27
2024-02-02T03:11:37.386Z,19.58
2024-02-02T03:14:06.948Z,18.67
2024-02-02T03:16:34.209Z,18.33
2024-02-02T03:19:05.699Z,18.02
2024-02-02T03:21:33.017Z,18.05
2024-02-02T03:24:00.107Z,18.08
2024-02-02T03:26:27.201Z,19.48
2024-02-02T03:28:54.226Z,17.60
2024-02-02T03:31:21.321Z,18.80
2024-02-02T03:33:48.458Z,18.25
2024-02-02T03:36:15.620Z,18.08
2024-02-02T03:38:42.731Z,19.02
2024-02-02T03:41:09.970Z,19.63
2024-02-02T03:43:36.999Z,18.00
2024-02-02T03:46:04.163Z,17.92
2024-02-02T03:48:31.937Z,17.90
2024-02-02T03:50:59.101Z,18.52
2024-02-02T03:53:26.120Z,18.38
2024-02-02T03:55:53.479Z,17.67
2024-02-02T03:58:20.484Z,17.30
2024-02-02T04:00:47.779Z,16.30
2024-02-02T04:03:14.930Z,17.60
2024-02-02T04:05:42.551Z,17.02
2024-02-02T04:08:09.783Z,16.98
2024-02-02T04:10:36.893Z,17.58
2024-02-02T04:13:03.992Z,17.35
2024-02-02T04:15:33.264Z,17.88
2024-02-02T04:18:04.514Z,17.55
2024-02-02T04:20:31.651Z,16.85
2024-02-02T04:22:59.057Z,16.70
2024-02-02T04:25:26.182Z,16.83
2024-02-02T04:27:53.943Z,17.55
2024-02-02T04:30:21.145Z,17.23
2024-02-02T04:32:48.388Z,16.73
2024-02-02T04:35:15.613Z,18.25
2024-02-02T04:37:44.810Z,17.35
2024-02-02T04:40:12.229Z,16.50
2024-02-02T04:42:39.293Z,17.30
2024-02-02T04:45:06.881Z,17.63
2024-02-02T04:47:33.934Z,19.45
2024-02-02T04:50:01.160Z,17.63
2024-02-02T04:52:28.225Z,18.55
2024-02-02T04:54:57.096Z,17.98
2024-02-02T04:57:24.311Z,18.50
2024-02-02T04:59:51.410Z,18.67
2024-02-02T05:02:18.730Z,17.65
2024-02-02T05:04:45.902Z,18.80
2024-02-02T05:07:13.125Z,17.42
2024-02-02T05:09:40.260Z,16.90
2024-02-02T05:12:07.961Z,18.35
2024-02-02T05:14:35.218Z,18.55
2024-02-02T05:17:03.055Z,17.75
2024-02-02T05:19:30.295Z,17.85
2024-02-02T05:21:57.399Z,17.50
2024-02-02T05:24:37.238Z,17.73
2024-02-02T05:27:13.652Z,18.13
2024-02-02T05:29:40.865Z,16.75
2024-02-02T05:32:08.061Z,17.60
2024-02-02T05:34:35.238Z,16.88
2024-02-02T05:37:02.766Z,17.55
2024-02-02T05:39:30.587Z,17.67
2024-02-02T05:41:59.198Z,18.10
2024-02-02T05:44:26.450Z,17.30
2024-02-02T05:46:53.820Z,16.08
2024-02-02T05:49:21.113Z,17.42
2024-02-02T05:51:49.434Z,17.23
2024-02-02T05:54:16.781Z,17.67
2024-02-02T05:56:43.867Z,17.98
2024-02-02T05:59:11.017Z,16.23
2024-02-02T06:01:38.062Z,17.48
2024-02-02T06:04:05.288Z,16.83
2024-02-02T06:06:32.733Z,16.95
2024-02-02T06:09:00.894Z,17.30
2024-02-02T06:11:28.252Z,17.42
2024-02-02T06:13:57.468Z,17.23
2024-02-02T06:16:26.105Z,17.65
2024-02-02T06:19:04.391Z,16.83
2024-02-02T06:21:31.579Z,16.23
2024-02-02T06:23:58.654Z,17.23
2024-02-02T06:26:25.775Z,16.67
2024-02-02T06:28:52.810Z,16.35
2024-02-02T06:31:22.385Z,16.23
2024-02-02T06:33:49.672Z,15.60
2024-02-02T06:36:16.835Z,16.70
2024-02-02T06:38:43.801Z,16.25
2024-02-02T06:41:12.247Z,15.88
2024-02-02T06:43:39.278Z,16.10
2024-02-02T06:46:06.396Z,18.00
2024-02-02T06:48:33.571Z,18.05
2024-02-02T06:51:02.990Z,17.25
2024-02-02T06:53:33.916Z,15.43
2024-02-02T06:56:00.912Z,15.40
2024-02-02T06:58:42.775Z,15.90
2024-02-02T07:01:11.028Z,16.83
2024-02-02T07:03:39.012Z,15.75
2024-02-02T07:06:07.416Z,16.58
2024-02-02T07:08:34.825Z,17.30
2024-02-02T07:11:35.811Z,17.15
2024-02-02T07:14:10.761Z,18.00
2024-02-02T07:16:41.433Z,17.35
2024-02-02T07:19:33.872Z,16.75
2024-02-02T07:22:01.073Z,16.98
2024-02-02T07:24:28.167Z,17.08
2024-02-02T07:26:55.448Z,18.35
2024-02-02T07:29:51.631Z,16.85
2024-02-02T07:32:19.412Z,16.67
2024-02-02T07:34:49.493Z,17.23
2024-02-02T07:37:48.975Z,17.10
2024-02-02T07:41:02.187Z,15.98
2024-02-02T07:43:34.183Z,17.83
2024-02-02T07:46:02.809Z,15.77
2024-02-02T07:48:31.362Z,15.93
2024-02-02T07:50:58.456Z,16.63
2024-02-02T07:53:26.071Z,18.80
2024-02-02T07:55:53.406Z,16.23
2024-02-02T07:58:23.857Z,16.35
2024-02-02T08:00:51.825Z,17.52
2024-02-02T08:03:19.591Z,17.30
2024-02-02T08:05:48.605Z,16.60
2024-02-02T08:08:15.956Z,17.17
2024-02-02T08:10:44.354Z,15.95
2024-02-02T08:13:14.035Z,16.95
2024-02-02T08:15:41.604Z,15.80
2024-02-02T08:18:10.005Z,17.50
2024-02-02T08:20:37.488Z,17.73
2024-02-02T08:23:06.001Z,15.88
2024-02-02T08:25:34.094Z,17.65
2024-02-02T08:28:02.403Z,16.85
2024-02-02T08:30:29.853Z,16.80
2024-02-02T08:32:57.222Z,17.58
2024-02-02T08:35:26.417Z,20.05
2024-02-02T08:38:03.981Z,18.35
2024-02-02T08:40:40.261Z,18.45
2024-02-02T08:43:18.389Z,18.40
2024-02-02T08:45:54.614Z,17.67
2024-02-02T08:48:33.853Z,17.67
2024-02-02T08:51:02.020Z,18.20
2024-02-02T08:53:30.988Z,18.08
2024-02-02T08:56:02.791Z,17.40
2024-02-02T08:58:36.393Z,17.35
2024-02-02T09:01:05.229Z,17.53
2024-02-02T09:03:35.388Z,17.17
2024-02-02T09:06:08.544Z,14.90
2024-02-02T09:08:39.601Z,15.55
2024-02-02T09:11:27.314Z,15.93
2024-02-02T09:14:19.143Z,16.08
2024-02-02T09:16:53.886Z,16.10
2024-02-02T09:19:28.951Z,16.10
2024-02-02T09:21:59.874Z,17.25
2024-02-02T09:24:43.403Z,18.33
2024-02-02T09:27:21.027Z,16.17
2024-02-02T09:29:49.771Z,15.88
2024-02-02T09:32:17.677Z,15.80
2024-02-02T09:34:46.890Z,16.55
2024-02-02T09:37:28.206Z,17.33
2024-02-02T09:39:56.623Z,17.70
2024-02-02T09:42:55.792Z,16.90
2024-02-02T09:46:01.072Z,16.27
2024-02-02T09:48:58.893Z,16.30
2024-02-02T09:52:03.961Z,15.95
2024-02-02T09:54:50.827Z,16.10
2024-02-02T09:57:42.925Z,14.13
2024-02-02T10:00:27.936Z,15.77
2024-02-02T10:02:55.006Z,15.93
2024-02-02T10:05:36.987Z,14.77
2024-02-02T10:08:48.556Z,14.25
2024-02-02T10:11:31.952Z,14.50
2024-02-02T10:14:16.052Z,15.93
2024-02-02T10:17:13.695Z,14.35
2024-02-02T10:20:35.796Z,14.77
2024-02-02T10:23:25.894Z,14.68
2024-02-02T10:26:09.757Z,14.35
2024-02-02T10:28:36.786Z,14.95
2024-02-02T10:31:45.477Z,13.15
2024-02-02T10:34:29.353Z,13.02
2024-02-02T10:37:24.200Z,13.27
2024-02-02T10:40:40.964Z,13.23
2024-02-02T10:43:14.291Z,12.85
2024-02-02T10:46:13.348Z,12.30
2024-02-02T10:48:53.373Z,11.68
2024-02-02T10:51:42.169Z,10.35
2024-02-02T10:54:50.489Z,9.98
2024-02-02T10:57:31.938Z,9.00
2024-02-02T11:03:14.748Z,8.27
2024-02-02T11:05:53.130Z,8.40
2024-02-02T11:08:23.561Z,7.72
2024-02-02T11:10:53.571Z,7.70
2024-02-02T11:13:33.031Z,8.57
2024-02-02T11:16:08.859Z,8.60
2024-02-02T11:19:07.803Z,7.53
2024-02-02T11:22:12.731Z,7.70
2024-02-02T11:25:18.247Z,7.97
2024-02-02T11:27:50.243Z,8.00
2024-02-02T11:30:26.864Z,7.28
2024-02-02T11:32:56.904Z,7.15
2024-02-02T11:35:53.007Z,7.07
2024-02-02T11:38:32.507Z,6.57
2024-02-02T11:40:59.999Z,7.55
2024-02-02T11:43:28.980Z,7.10
2024-02-02T11:45:57.196Z,7.65
2024-02-02T11:48:37.089Z,7.20
2024-02-02T11:51:05.938Z,7.35
2024-02-02T11:53:46.280Z,7.80
2024-02-02T11:56:34.957Z,7.28
2024-02-02T11:59:12.457Z,7.03
2024-02-02T12:02:19.646Z,6.80
2024-02-02T12:04:49.445Z,6.95
2024-02-02T12:07:31.450Z,7.97
2024-02-02T12:10:11.313Z,7.93
2024-02-02T12:12:47.413Z,8.57
2024-02-02T12:15:15.966Z,7.38
2024-02-02T12:17:44.029Z,7.88
2024-02-02T12:20:12.879Z,8.05
2024-02-02T12:22:41.172Z,7.50
2024-02-02T12:25:11.113Z,7.72
2024-02-02T12:27:38.990Z,8.98
2024-02-02T12:30:10.429Z,8.02
2024-02-02T12:32:38.070Z,8.38
2024-02-02T12:35:07.195Z,7.78
2024-02-02T12:38:05.520Z,8.27
2024-02-02T12:40:33.608Z,8.43
2024-02-02T12:43:02.818Z,7.82
2024-02-02T12:45:32.835Z,7.97
2024-02-02T12:48:01.622Z,7.80
2024-02-02T12:50:28.809Z,7.95
2024-02-02T12:52:56.176Z,7.53
2024-02-02T12:55:23.383Z,10.00
2024-02-02T12:57:51.961Z,7.97
2024-02-02T13:00:21.948Z,7.88
2024-02-02T13:02:54.147Z,7.32
2024-02-02T13:05:23.485Z,6.65
2024-02-02T13:07:52.600Z,7.65
2024-02-02T13:10:39.278Z,7.13
2024-02-02T13:13:23.465Z,7.07
2024-02-02T13:15:50.742Z,7.90
2024-02-02T13:18:21.219Z,6.93
2024-02-02T13:20:51.229Z,6.20
2024-02-02T13:23:28.985Z,6.55
2024-02-02T13:26:02.588Z,8.60
2024-02-02T13:28:31.329Z,7.17
2024-02-02T13:31:08.445Z,5.70
2024-02-02T13:33:37.254Z,6.40
2024-02-02T13:36:10.951Z,6.43
2024-02-02T13:38:41.987Z,6.20
2024-02-02T13:41:09.220Z,5.85
2024-02-02T13:43:39.061Z,5.43
2024-02-02T13:46:08.789Z,6.18
2024-02-02T13:48:45.373Z,5.47
2024-02-02T13:51:13.212Z,6.85
2024-02-02T13:53:40.586Z,6.15
2024-02-02T13:56:11.416Z,5.90
2024-02-02T13:58:43.361Z,7.20
2024-02-02T14:01:19.236Z,5.60
2024-02-02T14:03:47.491Z,5.22
2024-02-02T14:06:15.465Z,5.85
2024-02-02T14:08:49.160Z,5.82
2024-02-02T14:11:23.908Z,5.57
2024-02-02T14:13:56.033Z,6.43
2024-02-02T14:16:27.957Z,5.90
2024-02-02T14:19:02.783Z,5.10
2024-02-02T14:21:35.150Z,5.60
2024-02-02T14:24:16.347Z,5.28
2024-02-02T14:26:57.631Z,5.88
2024-02-02T14:29:26.914Z,5.28
2024-02-02T14:31:58.667Z,4.90
2024-02-02T14:34:28.365Z,5.38
2024-02-02T14:36:56.314Z,6.22
2024-02-02T14:39:27.746Z,6.20
2024-02-02T14:41:56.458Z,5.95
2024-02-02T14:44:24.933Z,6.03
2024-02-02T14:46:52.047Z,6.05
2024-02-02T14:49:23.195Z,6.13
2024-02-02T14:51:51.706Z,6.55
2024-02-02T14:54:19.191Z,5.90
2024-02-02T14:56:46.884Z,6.50
2024-02-02T14:59:21.750Z,7.53
2024-02-02T15:01:49.525Z,6.95
2024-02-02T15:04:17.408Z,6.90
2024-02-02T15:06:44.985Z,6.30
2024-02-02T15:09:17.720Z,6.40
2024-02-02T15:11:45.825Z,7.32
2024-02-02T15:14:13.855Z,7.30
2024-02-02T15:16:40.989Z,7.18
2024-02-02T15:19:08.269Z,6.38
2024-02-02T15:21:35.621Z,7.57
2024-02-02T15:24:03.074Z,7.50
2024-02-02T15:26:30.280Z,6.40
2024-02-02T15:28:57.313Z,6.55
2024-02-02T15:31:24.835Z,7.20
2024-02-02T15:33:52.010Z,6.70
2024-02-02T15:36:19.397Z,6.88
2024-02-02T15:39:06.100Z,6.75
2024-02-02T15:41:36.211Z,6.53
2024-02-02T15:46:30.446Z,6.40
2024-02-02T15:48:57.573Z,7.03
2024-02-02T15:51:25.441Z,7.60
2024-02-02T15:53:52.800Z,6.68
2024-02-02T15:56:25.649Z,6.78
2024-02-02T15:58:53.585Z,7.30
2024-02-02T16:01:20.716Z,6.95
2024-02-02T16:03:47.998Z,7.10
2024-02-02T16:06:21.590Z,7.03
2024-02-02T16:08:49.318Z,7.05
2024-02-02T16:11:17.146Z,6.30
2024-02-02T16:13:47.178Z,6.32
2024-02-02T16:16:14.265Z,6.30
2024-02-02T16:18:41.541Z,7.13
2024-02-02T16:21:08.844Z,6.25
2024-02-02T16:23:35.911Z,7.07
2024-02-02T16:26:02.930Z,6.22
2024-02-02T16:28:30.583Z,6.63
2024-02-02T16:30:57.643Z,6.97
2024-02-02T16:33:24.875Z,6.72
2024-02-02T16:35:52.031Z,7.40
2024-02-02T16:38:19.368Z,8.50
2024-02-02T16:40:46.436Z,7.22
2024-02-02T16:43:13.593Z,8.77
2024-02-02T16:45:41.869Z,11.88
2024-02-02T16:48:09.818Z,11.25
2024-02-02T16:50:38.343Z,12.98
2024-02-02T16:53:07.311Z,11.85
2024-02-02T16:55:34.805Z,12.82
2024-02-02T16:58:01.921Z,12.05
2024-02-02T17:00:30.463Z,13.13
2024-02-02T17:02:57.637Z,12.27
2024-02-02T17:05:24.794Z,12.20
2024-02-02T17:07:51.734Z,12.15
2024-02-02T17:10:18.758Z,12.55
2024-02-02T17:12:45.848Z,12.10
2024-02-02T17:15:12.993Z,12.82
2024-02-02T17:17:41.826Z,13.35
2024-02-02T17:20:11.679Z,11.98
2024-02-02T17:22:44.302Z,13.07
2024-02-02T17:25:12.340Z,12.23
2024-02-02T17:27:39.597Z,12.23
2024-02-02T17:30:08.086Z,12.70
2024-02-02T17:32:39.942Z,12.27
2024-02-02T17:35:08.982Z,13.20
2024-02-02T17:37:36.639Z,12.50
2024-02-02T17:40:05.380Z,13.82
2024-02-02T17:42:32.590Z,14.85
2024-02-02T17:44:59.727Z,12.57
2024-02-02T17:47:26.835Z,12.60
2024-02-02T17:49:56.757Z,12.32
2024-02-02T17:52:25.294Z,12.85
2024-02-02T17:54:52.429Z,13.95
2024-02-02T17:57:20.067Z,13.75
2024-02-02T17:59:47.378Z,12.75
2024-02-02T18:02:14.670Z,13.63
2024-02-02T18:04:41.940Z,13.30
2024-02-02T18:07:11.466Z,13.05
2024-02-02T18:09:40.447Z,12.77
2024-02-02T18:12:16.332Z,13.80
2024-02-02T18:14:43.481Z,14.15
2024-02-02T18:17:15.598Z,14.32
2024-02-02T18:19:42.714Z,13.02
2024-02-02T18:22:10.445Z,14.30
2024-02-02T18:24:37.650Z,13.75
2024-02-02T18:27:05.082Z,13.43
2024-02-02T18:29:32.194Z,13.43
2024-02-02T18:31:59.362Z,12.90
2024-02-02T18:34:26.674Z,13.25
2024-02-02T18:36:58.695Z,13.02
2024-02-02T18:39:37.069Z,14.18
2024-02-02T18:42:07.118Z,14.55
2024-02-02T18:44:36.045Z,13.73
2024-02-02T18:47:04.069Z,14.40
2024-02-02T18:49:31.724Z,14.98
2024-02-02T18:51:58.993Z,14.45
2024-02-02T18:54:26.250Z,15.02
2024-02-02T18:56:53.818Z,14.60
2024-02-02T18:59:20.913Z,14.13
2024-02-02T19:01:48.048Z,14.43
2024-02-02T19:04:15.272Z,16.42
2024-02-02T19:06:42.600Z,16.60
2024-02-02T19:09:12.910Z,16.00
2024-02-02T19:11:40.427Z,17.52
2024-02-02T19:14:13.248Z,16.48
2024-02-02T19:16:43.197Z,15.70
2024-02-02T19:19:10.452Z,16.13
2024-02-02T19:21:37.797Z,17.48
2024-02-02T19:24:05.916Z,17.60
2024-02-02T19:26:33.090Z,17.17
2024-02-02T19:29:00.552Z,16.83
2024-02-02T19:31:30.677Z,16.77
2024-02-02T19:33:58.015Z,17.65
2024-02-02T19:36:27.703Z,21.25
2024-02-02T19:38:56.397Z,17.55
2024-02-02T19:41:29.822Z,17.02
2024-02-02T19:43:57.371Z,17.08
2024-02-02T19:46:26.104Z,17.00
2024-02-02T19:48:54.854Z,17.17
2024-02-02T19:51:23.305Z,17.45
2024-02-02T19:53:50.672Z,17.50
2024-02-02T19:56:19.575Z,16.88
2024-02-02T19:58:46.855Z,17.92
2024-02-02T20:01:21.938Z,17.92
2024-02-02T20:03:51.082Z,19.48
2024-02-02T20:06:20.294Z,18.88
2024-02-02T20:08:54.249Z,18.38
2024-02-02T20:11:23.051Z,17.40
2024-02-02T20:13:50.256Z,15.45
2024-02-02T20:16:18.939Z,15.18
2024-02-02T20:18:46.442Z,15.63
2024-02-02T20:21:14.966Z,15.27
2024-02-02T20:23:42.391Z,14.70
2024-02-02T20:26:16.367Z,15.55
2024-02-02T20:28:43.550Z,14.07
2024-02-02T20:31:11.337Z,14.25
2024-02-02T20:33:38.494Z,12.20
2024-02-02T20:36:05.757Z,12.88
2024-02-02T20:38:32.813Z,12.20
2024-02-02T20:41:00.058Z,10.70
2024-02-02T20:43:27.220Z,11.68
2024-02-02T20:45:54.261Z,11.73
2024-02-02T20:48:24.932Z,12.65
2024-02-02T20:50:52.708Z,10.35
2024-02-02T20:53:20.287Z,11.18
2024-02-02T20:55:47.401Z,12.05
2024-02-02T20:58:14.507Z,11.40
2024-02-02T21:00:42.126Z,11.27
2024-02-02T21:03:09.452Z,13.25
2024-02-02T21:05:36.958Z,12.30
2024-02-02T21:08:04.800Z,11.68
2024-02-02T21:10:32.677Z,11.27
2024-02-02T21:12:59.966Z,10.38
2024-02-02T21:15:33.406Z,12.55
2024-02-02T21:18:07.523Z,11.38
2024-02-02T21:20:44.172Z,11.43
2024-02-02T21:23:12.166Z,9.45
2024-02-02T21:25:44.382Z,10.60
2024-02-02T21:28:11.859Z,11.05
2024-02-02T21:30:38.996Z,11.25
2024-02-02T21:33:06.537Z,12.77
2024-02-02T21:35:33.830Z,12.68
2024-02-02T21:38:00.947Z,11.48
2024-02-02T21:40:28.110Z,12.05
2024-02-02T21:42:55.656Z,13.25
2024-02-02T21:45:23.295Z,12.05
2024-02-02T21:47:50.807Z,12.23
2024-02-02T21:50:18.299Z,11.80
2024-02-02T21:52:45.509Z,11.15
2024-02-02T21:55:12.600Z,10.55
2024-02-02T21:57:39.691Z,11.40
2024-02-02T22:00:08.689Z,11.98
2024-02-02T22:02:35.870Z,10.57
2024-02-02T22:05:03.158Z,10.05
2024-02-02T22:07:30.663Z,10.57
2024-02-02T22:09:57.898Z,10.73
2024-02-02T22:12:25.183Z,10.07
2024-02-02T22:14:53.069Z,10.50
2024-02-02T22:17:20.312Z,9.55
2024-02-02T22:19:47.586Z,9.75
2024-02-02T22:22:14.791Z,10.50
2024-02-02T22:24:42.526Z,10.15
2024-02-02T22:27:10.901Z,9.55
2024-02-02T22:29:38.000Z,9.73
2024-02-02T22:32:05.761Z,10.30
2024-02-02T22:34:33.919Z,10.55
2024-02-02T22:37:01.244Z,10.38
2024-02-02T22:39:28.511Z,11.75
2024-02-02T22:41:55.641Z,11.05
2024-02-02T22:44:22.781Z,10.70
2024-02-02T22:46:49.913Z,11.15
2024-02-02T22:49:17.220Z,10.93
2024-02-02T22:51:47.784Z,10.57
2024-02-02T22:54:15.629Z,10.88
2024-02-02T22:56:43.397Z,10.75
2024-02-02T22:59:11.284Z,9.98
2024-02-02T23:01:38.362Z,9.38
2024-02-02T23:04:05.864Z,8.80
2024-02-02T23:06:33.222Z,10.10
2024-02-02T23:09:00.451Z,9.52
2024-02-02T23:11:27.556Z,10.15
2024-02-02T23:13:54.678Z,10.00
2024-02-02T23:16:22.249Z,10.25
2024-02-02T23:18:49.572Z,10.00
2024-02-02T23:21:17.040Z,10.93
2024-02-02T23:23:44.343Z,10.43
2024-02-02T23:26:12.513Z,9.93
2024-02-02T23:28:39.769Z,9.73
2024-02-02T23:31:06.855Z,10.80
2024-02-02T23:33:34.001Z,10.93
2024-02-02T23:36:01.770Z,10.25
2024-02-02T23:38:28.900Z,10.82
2024-02-02T23:40:57.115Z,11.32
2024-02-02T23:43:24.349Z,10.57
2024-02-02T23:45:52.085Z,11.48
2024-02-02T23:48:19.709Z,11.02
2024-02-02T23:50:46.930Z,10.32
2024-02-02T23:53:14.322Z,9.57
2024-02-02T23:55:41.465Z,10.82
2024-02-02T23:58:08.574Z,10.55
